N323WW KDKB-KFSD
Flight info
| Callsign | N323WW |
|---|---|
| Flight time | N/A |
| Altitude | 14000 |
| Route | OREOS OBENE MONNY SMIDD |
| Aircraft | SH33/M-SDFGRY/S |
Departure
| Time | 2026-04-12 11:43 |
|---|---|
| Airport | DeKalb Taylor Municipal Airport (KDKB) |
Arrival
| Time | N/A |
|---|---|
| Airport | Sioux Falls Regional Airport (KFSD) |
| Time | Latitude | Longitude | Altitude | Speed | Heading |
|---|---|---|---|---|---|
| 2026-04-12 11:39 | 41.93011 | -88.72483 | 926 ft | 0 kts | 302° |
| 2026-04-12 11:39 | 41.93036 | -88.72449 | 926 ft | 20 kts | 121° |
| 2026-04-12 11:39 | 41.92989 | -88.72318 | 926 ft | 17 kts | 90° |
| 2026-04-12 11:39 | 41.92991 | -88.72085 | 926 ft | 25 kts | 90° |
| 2026-04-12 11:40 | 41.92990 | -88.71861 | 926 ft | 24 kts | 90° |
| 2026-04-12 11:40 | 41.92990 | -88.71645 | 926 ft | 23 kts | 92° |
| 2026-04-12 11:40 | 41.92990 | -88.71437 | 926 ft | 23 kts | 90° |
| 2026-04-12 11:40 | 41.92989 | -88.71196 | 926 ft | 25 kts | 90° |
| 2026-04-12 11:41 | 41.92989 | -88.70972 | 926 ft | 23 kts | 90° |
| 2026-04-12 11:41 | 41.92990 | -88.70758 | 926 ft | 22 kts | 90° |
| 2026-04-12 11:41 | 41.92990 | -88.70551 | 926 ft | 22 kts | 90° |
| 2026-04-12 11:41 | 41.92989 | -88.70365 | 926 ft | 12 kts | 94° |
| 2026-04-12 11:42 | 41.92920 | -88.70343 | 926 ft | 12 kts | 179° |
| 2026-04-12 11:42 | 41.92902 | -88.70459 | 926 ft | 41 kts | 270° |
| 2026-04-12 11:42 | 41.92902 | -88.71216 | 1064 ft | 101 kts | 271° |
| 2026-04-12 11:43 | 41.93072 | -88.73207 | 1978 ft | 136 kts | 271° |
| 2026-04-12 11:43 | 41.93065 | -88.74666 | 1955 ft | 167 kts | 265° |
| 2026-04-12 11:43 | 41.92990 | -88.76274 | 1813 ft | 185 kts | 264° |
| 2026-04-12 11:43 | 41.92886 | -88.78034 | 1995 ft | 181 kts | 263° |
| 2026-04-12 11:44 | 41.92787 | -88.79657 | 2307 ft | 174 kts | 263° |
| 2026-04-12 11:44 | 41.92690 | -88.81247 | 2647 ft | 168 kts | 259° |
| 2026-04-12 11:44 | 41.92597 | -88.82780 | 3107 ft | 161 kts | 257° |
| 2026-04-12 11:44 | 41.92502 | -88.84261 | 3553 ft | 157 kts | 257° |
| 2026-04-12 11:45 | 41.92302 | -88.85665 | 3989 ft | 152 kts | 251° |
| 2026-04-12 11:45 | 41.92188 | -88.87076 | 4437 ft | 152 kts | 259° |
| 2026-04-12 11:45 | 41.92136 | -88.88480 | 4886 ft | 150 kts | 261° |
| 2026-04-12 11:45 | 41.92078 | -88.89869 | 5337 ft | 148 kts | 261° |
| 2026-04-12 11:46 | 41.92006 | -88.91241 | 5788 ft | 146 kts | 261° |
| 2026-04-12 11:46 | 41.91926 | -88.92592 | 6236 ft | 145 kts | 261° |
| 2026-04-12 11:46 | 41.91844 | -88.93930 | 6685 ft | 144 kts | 261° |
| 2026-04-12 11:46 | 41.91760 | -88.95262 | 7134 ft | 143 kts | 261° |
| 2026-04-12 11:47 | 41.91672 | -88.96590 | 7582 ft | 142 kts | 261° |
| 2026-04-12 11:47 | 41.91584 | -88.97893 | 8030 ft | 141 kts | 261° |
| 2026-04-12 11:47 | 41.91497 | -88.99209 | 8480 ft | 141 kts | 262° |
| 2026-04-12 11:47 | 41.91409 | -89.00520 | 8929 ft | 141 kts | 262° |
| 2026-04-12 11:48 | 41.91321 | -89.01835 | 9377 ft | 142 kts | 262° |